sensor_id;sensor_type;location;lat;lon;timestamp;P1;durP1;ratioP1;P2;durP2;ratioP2
21183;SDS011;18176;49.502;11.754;2024-03-29T00:03:00;2.73;;;2.13;;
21183;SDS011;18176;49.502;11.754;2024-03-29T00:07:18;2.80;;;2.10;;
21183;SDS011;18176;49.502;11.754;2024-03-29T00:11:41;2.93;;;2.13;;
21183;SDS011;18176;49.502;11.754;2024-03-29T00:15:57;3.20;;;2.40;;
21183;SDS011;18176;49.502;11.754;2024-03-29T00:20:14;3.20;;;2.07;;
21183;SDS011;18176;49.502;11.754;2024-03-29T00:24:31;2.10;;;1.90;;
21183;SDS011;18176;49.502;11.754;2024-03-29T00:28:51;3.00;;;2.20;;
21183;SDS011;18176;49.502;11.754;2024-03-29T00:33:08;3.50;;;1.90;;
21183;SDS011;18176;49.502;11.754;2024-03-29T00:37:25;2.63;;;1.90;;
21183;SDS011;18176;49.502;11.754;2024-03-29T00:41:42;3.57;;;2.43;;
21183;SDS011;18176;49.502;11.754;2024-03-29T00:46:01;4.77;;;2.30;;
21183;SDS011;18176;49.502;11.754;2024-03-29T00:50:18;2.60;;;2.10;;
21183;SDS011;18176;49.502;11.754;2024-03-29T00:54:36;4.37;;;2.20;;
21183;SDS011;18176;49.502;11.754;2024-03-29T00:58:53;4.20;;;2.23;;
21183;SDS011;18176;49.502;11.754;2024-03-29T01:03:12;5.10;;;2.03;;
21183;SDS011;18176;49.502;11.754;2024-03-29T01:07:29;3.17;;;2.27;;
21183;SDS011;18176;49.502;11.754;2024-03-29T01:11:47;3.10;;;2.27;;
21183;SDS011;18176;49.502;11.754;2024-03-29T01:16:06;3.00;;;2.20;;
21183;SDS011;18176;49.502;11.754;2024-03-29T01:20:25;6.00;;;2.20;;
21183;SDS011;18176;49.502;11.754;2024-03-29T01:24:42;3.77;;;2.43;;
21183;SDS011;18176;49.502;11.754;2024-03-29T01:28:59;2.97;;;2.33;;
21183;SDS011;18176;49.502;11.754;2024-03-29T01:33:16;4.47;;;2.30;;
21183;SDS011;18176;49.502;11.754;2024-03-29T01:37:35;3.40;;;2.30;;
21183;SDS011;18176;49.502;11.754;2024-03-29T01:41:52;3.03;;;2.40;;
21183;SDS011;18176;49.502;11.754;2024-03-29T01:46:10;5.87;;;2.10;;
21183;SDS011;18176;49.502;11.754;2024-03-29T01:50:27;4.07;;;2.50;;
21183;SDS011;18176;49.502;11.754;2024-03-29T01:54:47;3.77;;;2.50;;
21183;SDS011;18176;49.502;11.754;2024-03-29T01:59:05;3.50;;;2.30;;
21183;SDS011;18176;49.502;11.754;2024-03-29T02:03:30;3.43;;;2.40;;
21183;SDS011;18176;49.502;11.754;2024-03-29T02:07:48;3.13;;;2.40;;
21183;SDS011;18176;49.502;11.754;2024-03-29T02:12:08;5.77;;;2.20;;
21183;SDS011;18176;49.502;11.754;2024-03-29T02:16:25;3.37;;;2.30;;
21183;SDS011;18176;49.502;11.754;2024-03-29T02:20:42;3.17;;;2.20;;
21183;SDS011;18176;49.502;11.754;2024-03-29T02:25:02;3.17;;;2.40;;
21183;SDS011;18176;49.502;11.754;2024-03-29T02:29:20;2.90;;;1.90;;
21183;SDS011;18176;49.502;11.754;2024-03-29T02:33:37;2.83;;;2.17;;
21183;SDS011;18176;49.502;11.754;2024-03-29T02:37:54;3.47;;;2.30;;
21183;SDS011;18176;49.502;11.754;2024-03-29T02:42:13;2.73;;;2.10;;
21183;SDS011;18176;49.502;11.754;2024-03-29T02:46:30;3.93;;;2.23;;
21183;SDS011;18176;49.502;11.754;2024-03-29T02:50:47;3.03;;;1.90;;
21183;SDS011;18176;49.502;11.754;2024-03-29T02:55:04;4.30;;;2.10;;
21183;SDS011;18176;49.502;11.754;2024-03-29T02:59:24;3.43;;;2.10;;
21183;SDS011;18176;49.502;11.754;2024-03-29T03:03:41;2.40;;;2.20;;
21183;SDS011;18176;49.502;11.754;2024-03-29T03:07:58;3.43;;;2.00;;
21183;SDS011;18176;49.502;11.754;2024-03-29T03:12:31;2.73;;;2.00;;
21183;SDS011;18176;49.502;11.754;2024-03-29T03:16:50;3.67;;;1.97;;
21183;SDS011;18176;49.502;11.754;2024-03-29T03:21:08;2.40;;;2.10;;
21183;SDS011;18176;49.502;11.754;2024-03-29T03:25:26;6.27;;;2.10;;
21183;SDS011;18176;49.502;11.754;2024-03-29T03:29:43;2.87;;;2.20;;
21183;SDS011;18176;49.502;11.754;2024-03-29T03:34:03;3.83;;;2.30;;
21183;SDS011;18176;49.502;11.754;2024-03-29T03:38:20;3.00;;;2.27;;
21183;SDS011;18176;49.502;11.754;2024-03-29T03:42:37;3.63;;;2.50;;
21183;SDS011;18176;49.502;11.754;2024-03-29T03:46:55;2.27;;;1.90;;
21183;SDS011;18176;49.502;11.754;2024-03-29T03:51:14;2.67;;;2.10;;
21183;SDS011;18176;49.502;11.754;2024-03-29T03:55:35;3.10;;;2.20;;
21183;SDS011;18176;49.502;11.754;2024-03-29T03:59:53;3.00;;;2.10;;
21183;SDS011;18176;49.502;11.754;2024-03-29T04:04:09;3.80;;;2.10;;
21183;SDS011;18176;49.502;11.754;2024-03-29T04:08:29;2.60;;;2.00;;
21183;SDS011;18176;49.502;11.754;2024-03-29T04:12:46;3.93;;;1.80;;
21183;SDS011;18176;49.502;11.754;2024-03-29T04:17:03;2.23;;;1.90;;
21183;SDS011;18176;49.502;11.754;2024-03-29T04:21:20;2.80;;;2.10;;
21183;SDS011;18176;49.502;11.754;2024-03-29T04:25:39;3.03;;;2.00;;
21183;SDS011;18176;49.502;11.754;2024-03-29T04:29:56;5.50;;;3.30;;
21183;SDS011;18176;49.502;11.754;2024-03-29T04:34:13;2.40;;;1.83;;
21183;SDS011;18176;49.502;11.754;2024-03-29T04:38:30;2.97;;;1.83;;
21183;SDS011;18176;49.502;11.754;2024-03-29T04:42:50;6.33;;;2.60;;
21183;SDS011;18176;49.502;11.754;2024-03-29T04:47:07;3.30;;;2.10;;
21183;SDS011;18176;49.502;11.754;2024-03-29T04:51:24;5.60;;;2.90;;
21183;SDS011;18176;49.502;11.754;2024-03-29T04:55:41;2.97;;;1.83;;
21183;SDS011;18176;49.502;11.754;2024-03-29T05:00:01;3.17;;;1.83;;
21183;SDS011;18176;49.502;11.754;2024-03-29T05:04:18;1.93;;;1.67;;
21183;SDS011;18176;49.502;11.754;2024-03-29T05:08:35;1.57;;;1.47;;
21183;SDS011;18176;49.502;11.754;2024-03-29T05:12:52;2.00;;;1.50;;
21183;SDS011;18176;49.502;11.754;2024-03-29T05:17:12;3.17;;;1.70;;
21183;SDS011;18176;49.502;11.754;2024-03-29T05:21:29;2.60;;;1.80;;
21183;SDS011;18176;49.502;11.754;2024-03-29T05:25:45;2.70;;;1.93;;
21183;SDS011;18176;49.502;11.754;2024-03-29T05:30:03;2.20;;;1.80;;
21183;SDS011;18176;49.502;11.754;2024-03-29T05:34:24;1.93;;;1.50;;
21183;SDS011;18176;49.502;11.754;2024-03-29T05:38:41;2.10;;;1.67;;
21183;SDS011;18176;49.502;11.754;2024-03-29T05:42:58;1.40;;;1.20;;
21183;SDS011;18176;49.502;11.754;2024-03-29T05:47:15;1.67;;;1.23;;
21183;SDS011;18176;49.502;11.754;2024-03-29T05:51:35;1.70;;;1.23;;
21183;SDS011;18176;49.502;11.754;2024-03-29T05:55:51;2.00;;;1.10;;
21183;SDS011;18176;49.502;11.754;2024-03-29T06:00:09;1.30;;;1.00;;
21183;SDS011;18176;49.502;11.754;2024-03-29T06:04:29;2.50;;;1.00;;
21183;SDS011;18176;49.502;11.754;2024-03-29T06:08:49;1.80;;;1.50;;
21183;SDS011;18176;49.502;11.754;2024-03-29T06:13:06;1.63;;;1.30;;
21183;SDS011;18176;49.502;11.754;2024-03-29T06:17:23;3.70;;;1.60;;
21183;SDS011;18176;49.502;11.754;2024-03-29T06:21:40;2.00;;;1.20;;
21183;SDS011;18176;49.502;11.754;2024-03-29T06:25:59;1.30;;;1.00;;
21183;SDS011;18176;49.502;11.754;2024-03-29T06:30:16;1.63;;;1.00;;
21183;SDS011;18176;49.502;11.754;2024-03-29T06:34:33;1.20;;;1.00;;
21183;SDS011;18176;49.502;11.754;2024-03-29T06:38:50;2.13;;;1.40;;
21183;SDS011;18176;49.502;11.754;2024-03-29T06:43:09;2.23;;;1.67;;
21183;SDS011;18176;49.502;11.754;2024-03-29T06:47:27;2.03;;;1.70;;
21183;SDS011;18176;49.502;11.754;2024-03-29T06:51:44;1.43;;;0.90;;
21183;SDS011;18176;49.502;11.754;2024-03-29T06:56:01;1.00;;;1.00;;
21183;SDS011;18176;49.502;11.754;2024-03-29T07:00:21;0.87;;;0.87;;
21183;SDS011;18176;49.502;11.754;2024-03-29T07:04:38;1.50;;;1.00;;
21183;SDS011;18176;49.502;11.754;2024-03-29T07:08:55;1.37;;;1.00;;
21183;SDS011;18176;49.502;11.754;2024-03-29T07:13:12;1.30;;;0.90;;
21183;SDS011;18176;49.502;11.754;2024-03-29T07:17:32;1.97;;;0.70;;
21183;SDS011;18176;49.502;11.754;2024-03-29T07:21:48;2.50;;;0.90;;
21183;SDS011;18176;49.502;11.754;2024-03-29T07:26:06;3.43;;;0.90;;
21183;SDS011;18176;49.502;11.754;2024-03-29T07:30:23;2.47;;;0.90;;
21183;SDS011;18176;49.502;11.754;2024-03-29T07:34:43;1.77;;;1.20;;
21183;SDS011;18176;49.502;11.754;2024-03-29T07:39:00;3.43;;;1.40;;
21183;SDS011;18176;49.502;11.754;2024-03-29T07:43:18;1.73;;;1.10;;
21183;SDS011;18176;49.502;11.754;2024-03-29T07:47:36;1.93;;;1.20;;
21183;SDS011;18176;49.502;11.754;2024-03-29T07:51:56;2.90;;;1.20;;
21183;SDS011;18176;49.502;11.754;2024-03-29T07:56:13;3.13;;;1.10;;
21183;SDS011;18176;49.502;11.754;2024-03-29T08:00:30;1.50;;;1.20;;
21183;SDS011;18176;49.502;11.754;2024-03-29T08:04:51;1.10;;;1.00;;
21183;SDS011;18176;49.502;11.754;2024-03-29T08:09:11;3.33;;;0.90;;
21183;SDS011;18176;49.502;11.754;2024-03-29T08:13:29;2.93;;;1.00;;
21183;SDS011;18176;49.502;11.754;2024-03-29T08:17:45;0.80;;;0.70;;
21183;SDS011;18176;49.502;11.754;2024-03-29T08:22:02;0.90;;;0.90;;
21183;SDS011;18176;49.502;11.754;2024-03-29T08:26:22;2.80;;;1.23;;
21183;SDS011;18176;49.502;11.754;2024-03-29T08:30:40;1.10;;;0.97;;
21183;SDS011;18176;49.502;11.754;2024-03-29T08:34:57;0.82;;;0.77;;
21183;SDS011;18176;49.502;11.754;2024-03-29T08:39:14;2.33;;;0.63;;
21183;SDS011;18176;49.502;11.754;2024-03-29T08:43:34;0.95;;;0.85;;
21183;SDS011;18176;49.502;11.754;2024-03-29T08:47:50;1.45;;;0.70;;
21183;SDS011;18176;49.502;11.754;2024-03-29T08:52:08;2.15;;;0.80;;
21183;SDS011;18176;49.502;11.754;2024-03-29T08:56:25;1.35;;;0.80;;
21183;SDS011;18176;49.502;11.754;2024-03-29T09:00:51;1.10;;;0.80;;
21183;SDS011;18176;49.502;11.754;2024-03-29T09:05:09;1.52;;;0.73;;
21183;SDS011;18176;49.502;11.754;2024-03-29T09:09:26;3.13;;;0.60;;
21183;SDS011;18176;49.502;11.754;2024-03-29T09:13:43;1.10;;;0.70;;
21183;SDS011;18176;49.502;11.754;2024-03-29T09:18:02;1.35;;;0.75;;
21183;SDS011;18176;49.502;11.754;2024-03-29T09:22:23;2.00;;;0.90;;
21183;SDS011;18176;49.502;11.754;2024-03-29T09:26:40;1.73;;;1.10;;
21183;SDS011;18176;49.502;11.754;2024-03-29T09:30:57;1.50;;;1.27;;
21183;SDS011;18176;49.502;11.754;2024-03-29T09:35:17;1.93;;;1.20;;
21183;SDS011;18176;49.502;11.754;2024-03-29T09:39:34;3.33;;;1.50;;
21183;SDS011;18176;49.502;11.754;2024-03-29T09:43:51;2.53;;;1.20;;
21183;SDS011;18176;49.502;11.754;2024-03-29T09:48:10;1.83;;;1.07;;
21183;SDS011;18176;49.502;11.754;2024-03-29T09:52:32;3.13;;;1.03;;
21183;SDS011;18176;49.502;11.754;2024-03-29T09:56:49;1.63;;;1.13;;
21183;SDS011;18176;49.502;11.754;2024-03-29T10:01:07;4.00;;;2.17;;
21183;SDS011;18176;49.502;11.754;2024-03-29T10:05:24;5.07;;;2.10;;
21183;SDS011;18176;49.502;11.754;2024-03-29T10:09:45;19.97;;;8.17;;
21183;SDS011;18176;49.502;11.754;2024-03-29T10:14:03;2.70;;;1.83;;
21183;SDS011;18176;49.502;11.754;2024-03-29T10:18:20;2.87;;;1.60;;
21183;SDS011;18176;49.502;11.754;2024-03-29T10:22:40;2.17;;;1.57;;
21183;SDS011;18176;49.502;11.754;2024-03-29T10:27:00;4.60;;;1.30;;
21183;SDS011;18176;49.502;11.754;2024-03-29T10:31:17;3.20;;;1.47;;
21183;SDS011;18176;49.502;11.754;2024-03-29T10:35:34;4.27;;;2.20;;
21183;SDS011;18176;49.502;11.754;2024-03-29T10:39:51;3.00;;;1.20;;
21183;SDS011;18176;49.502;11.754;2024-03-29T10:44:11;3.97;;;2.33;;
21183;SDS011;18176;49.502;11.754;2024-03-29T10:48:29;3.23;;;2.10;;
21183;SDS011;18176;49.502;11.754;2024-03-29T10:52:47;1.57;;;1.10;;
21183;SDS011;18176;49.502;11.754;2024-03-29T10:57:05;2.60;;;1.70;;
21183;SDS011;18176;49.502;11.754;2024-03-29T11:01:38;2.90;;;2.20;;
21183;SDS011;18176;49.502;11.754;2024-03-29T11:06:02;2.33;;;1.87;;
21183;SDS011;18176;49.502;11.754;2024-03-29T11:10:23;2.83;;;1.50;;
21183;SDS011;18176;49.502;11.754;2024-03-29T11:14:46;2.30;;;1.60;;
21183;SDS011;18176;49.502;11.754;2024-03-29T11:19:12;2.10;;;1.47;;
21183;SDS011;18176;49.502;11.754;2024-03-29T11:23:30;1.50;;;1.33;;
21183;SDS011;18176;49.502;11.754;2024-03-29T11:27:47;2.00;;;1.65;;
21183;SDS011;18176;49.502;11.754;2024-03-29T11:32:04;2.17;;;1.70;;
21183;SDS011;18176;49.502;11.754;2024-03-29T11:36:24;2.25;;;1.67;;
21183;SDS011;18176;49.502;11.754;2024-03-29T11:40:53;2.10;;;1.50;;
21183;SDS011;18176;49.502;11.754;2024-03-29T11:45:11;1.80;;;1.38;;
21183;SDS011;18176;49.502;11.754;2024-03-29T11:49:27;2.20;;;1.70;;
21183;SDS011;18176;49.502;11.754;2024-03-29T11:53:47;2.22;;;1.50;;
21183;SDS011;18176;49.502;11.754;2024-03-29T11:58:05;6.20;;;3.00;;
21183;SDS011;18176;49.502;11.754;2024-03-29T12:02:22;4.15;;;2.72;;
21183;SDS011;18176;49.502;11.754;2024-03-29T12:06:39;7.10;;;4.05;;
21183;SDS011;18176;49.502;11.754;2024-03-29T12:10:59;11.13;;;6.60;;
21183;SDS011;18176;49.502;11.754;2024-03-29T12:15:18;4.65;;;3.13;;
21183;SDS011;18176;49.502;11.754;2024-03-29T12:19:35;4.75;;;3.25;;
21183;SDS011;18176;49.502;11.754;2024-03-29T12:23:52;5.50;;;3.60;;
21183;SDS011;18176;49.502;11.754;2024-03-29T12:28:12;2.60;;;2.00;;
21183;SDS011;18176;49.502;11.754;2024-03-29T12:32:31;3.67;;;1.80;;
21183;SDS011;18176;49.502;11.754;2024-03-29T12:36:49;3.90;;;1.80;;
21183;SDS011;18176;49.502;11.754;2024-03-29T12:41:05;2.42;;;1.90;;
21183;SDS011;18176;49.502;11.754;2024-03-29T12:45:26;5.38;;;3.88;;
21183;SDS011;18176;49.502;11.754;2024-03-29T12:49:43;1.88;;;1.50;;
21183;SDS011;18176;49.502;11.754;2024-03-29T12:54:01;2.47;;;2.20;;
21183;SDS011;18176;49.502;11.754;2024-03-29T12:58:18;2.80;;;1.70;;
21183;SDS011;18176;49.502;11.754;2024-03-29T13:02:38;3.55;;;2.50;;
21183;SDS011;18176;49.502;11.754;2024-03-29T13:06:55;1.98;;;1.60;;
21183;SDS011;18176;49.502;11.754;2024-03-29T13:11:12;2.42;;;1.90;;
21183;SDS011;18176;49.502;11.754;2024-03-29T13:15:31;2.95;;;1.77;;
21183;SDS011;18176;49.502;11.754;2024-03-29T13:19:53;3.17;;;1.70;;
21183;SDS011;18176;49.502;11.754;2024-03-29T13:24:09;4.22;;;1.70;;
21183;SDS011;18176;49.502;11.754;2024-03-29T13:28:26;4.07;;;1.60;;
21183;SDS011;18176;49.502;11.754;2024-03-29T13:32:44;2.03;;;1.40;;
21183;SDS011;18176;49.502;11.754;2024-03-29T13:37:03;1.50;;;1.40;;
21183;SDS011;18176;49.502;11.754;2024-03-29T13:41:20;2.38;;;1.60;;
21183;SDS011;18176;49.502;11.754;2024-03-29T13:45:37;4.07;;;3.67;;
21183;SDS011;18176;49.502;11.754;2024-03-29T13:49:54;7.25;;;5.30;;
21183;SDS011;18176;49.502;11.754;2024-03-29T13:54:14;1.30;;;1.20;;
21183;SDS011;18176;49.502;11.754;2024-03-29T13:58:30;1.63;;;1.40;;
21183;SDS011;18176;49.502;11.754;2024-03-29T14:02:47;3.90;;;1.40;;
21183;SDS011;18176;49.502;11.754;2024-03-29T14:07:04;1.40;;;1.30;;
21183;SDS011;18176;49.502;11.754;2024-03-29T14:11:25;1.58;;;1.48;;
21183;SDS011;18176;49.502;11.754;2024-03-29T14:15:43;1.23;;;1.08;;
21183;SDS011;18176;49.502;11.754;2024-03-29T14:20:00;1.40;;;1.08;;
21183;SDS011;18176;49.502;11.754;2024-03-29T14:24:17;3.85;;;2.30;;
21183;SDS011;18176;49.502;11.754;2024-03-29T14:28:37;5.28;;;3.40;;
21183;SDS011;18176;49.502;11.754;2024-03-29T14:32:53;1.40;;;1.17;;
21183;SDS011;18176;49.502;11.754;2024-03-29T14:37:10;1.25;;;1.10;;
21183;SDS011;18176;49.502;11.754;2024-03-29T14:41:28;1.50;;;1.10;;
21183;SDS011;18176;49.502;11.754;2024-03-29T14:45:48;1.65;;;0.90;;
21183;SDS011;18176;49.502;11.754;2024-03-29T14:50:05;1.17;;;0.93;;
21183;SDS011;18176;49.502;11.754;2024-03-29T14:54:23;1.48;;;1.25;;
21183;SDS011;18176;49.502;11.754;2024-03-29T14:58:40;1.58;;;1.08;;
21183;SDS011;18176;49.502;11.754;2024-03-29T15:03:00;1.27;;;1.08;;
21183;SDS011;18176;49.502;11.754;2024-03-29T15:07:18;1.40;;;1.30;;
21183;SDS011;18176;49.502;11.754;2024-03-29T15:11:36;2.63;;;1.27;;
21183;SDS011;18176;49.502;11.754;2024-03-29T15:15:54;1.50;;;1.10;;
21183;SDS011;18176;49.502;11.754;2024-03-29T15:20:16;1.95;;;1.60;;
21183;SDS011;18176;49.502;11.754;2024-03-29T15:24:34;1.50;;;1.40;;
21183;SDS011;18176;49.502;11.754;2024-03-29T15:28:52;1.90;;;1.50;;
21183;SDS011;18176;49.502;11.754;2024-03-29T15:33:25;1.70;;;1.20;;
21183;SDS011;18176;49.502;11.754;2024-03-29T15:37:46;1.65;;;1.10;;
21183;SDS011;18176;49.502;11.754;2024-03-29T15:42:04;1.20;;;1.10;;
21183;SDS011;18176;49.502;11.754;2024-03-29T15:46:23;1.45;;;1.15;;
21183;SDS011;18176;49.502;11.754;2024-03-29T15:50:41;2.55;;;1.63;;
21183;SDS011;18176;49.502;11.754;2024-03-29T15:55:03;1.95;;;1.50;;
21183;SDS011;18176;49.502;11.754;2024-03-29T15:59:21;1.60;;;1.50;;
21183;SDS011;18176;49.502;11.754;2024-03-29T16:03:39;1.45;;;1.10;;
21183;SDS011;18176;49.502;11.754;2024-03-29T16:07:56;1.63;;;1.40;;
21183;SDS011;18176;49.502;11.754;2024-03-29T16:12:16;3.33;;;1.75;;
21183;SDS011;18176;49.502;11.754;2024-03-29T16:16:33;1.10;;;0.98;;
21183;SDS011;18176;49.502;11.754;2024-03-29T16:20:50;1.13;;;1.00;;
21183;SDS011;18176;49.502;11.754;2024-03-29T16:25:07;2.40;;;1.90;;
21183;SDS011;18176;49.502;11.754;2024-03-29T16:29:27;3.97;;;3.10;;
21183;SDS011;18176;49.502;11.754;2024-03-29T16:33:44;4.78;;;2.60;;
21183;SDS011;18176;49.502;11.754;2024-03-29T16:38:01;3.17;;;2.50;;
21183;SDS011;18176;49.502;11.754;2024-03-29T16:42:19;2.40;;;1.80;;
21183;SDS011;18176;49.502;11.754;2024-03-29T16:46:38;3.58;;;2.67;;
21183;SDS011;18176;49.502;11.754;2024-03-29T16:50:55;1.83;;;1.38;;
21183;SDS011;18176;49.502;11.754;2024-03-29T16:55:12;1.33;;;1.20;;
21183;SDS011;18176;49.502;11.754;2024-03-29T16:59:29;0.80;;;0.80;;
21183;SDS011;18176;49.502;11.754;2024-03-29T17:03:48;2.50;;;1.67;;
21183;SDS011;18176;49.502;11.754;2024-03-29T17:08:05;2.45;;;1.52;;
21183;SDS011;18176;49.502;11.754;2024-03-29T17:12:22;3.47;;;2.80;;
21183;SDS011;18176;49.502;11.754;2024-03-29T17:16:39;2.67;;;1.35;;
21183;SDS011;18176;49.502;11.754;2024-03-29T17:20:59;2.25;;;1.75;;
21183;SDS011;18176;49.502;11.754;2024-03-29T17:25:16;9.20;;;3.90;;
21183;SDS011;18176;49.502;11.754;2024-03-29T17:29:33;5.15;;;2.83;;
21183;SDS011;18176;49.502;11.754;2024-03-29T17:33:51;11.95;;;4.55;;
21183;SDS011;18176;49.502;11.754;2024-03-29T17:38:10;10.15;;;3.80;;
21183;SDS011;18176;49.502;11.754;2024-03-29T17:42:28;5.40;;;2.55;;
21183;SDS011;18176;49.502;11.754;2024-03-29T17:46:45;15.60;;;5.80;;
21183;SDS011;18176;49.502;11.754;2024-03-29T17:51:02;4.40;;;1.85;;
21183;SDS011;18176;49.502;11.754;2024-03-29T17:55:22;3.72;;;1.90;;
21183;SDS011;18176;49.502;11.754;2024-03-29T17:59:39;6.65;;;2.60;;
21183;SDS011;18176;49.502;11.754;2024-03-29T18:03:55;7.50;;;4.57;;
21183;SDS011;18176;49.502;11.754;2024-03-29T18:08:12;6.45;;;2.88;;
21183;SDS011;18176;49.502;11.754;2024-03-29T18:12:32;9.18;;;4.43;;
21183;SDS011;18176;49.502;11.754;2024-03-29T18:16:49;17.33;;;7.78;;
21183;SDS011;18176;49.502;11.754;2024-03-29T18:21:06;14.07;;;6.57;;
21183;SDS011;18176;49.502;11.754;2024-03-29T18:25:23;7.28;;;3.17;;
21183;SDS011;18176;49.502;11.754;2024-03-29T18:29:42;18.30;;;8.15;;
21183;SDS011;18176;49.502;11.754;2024-03-29T18:33:59;10.90;;;5.53;;
21183;SDS011;18176;49.502;11.754;2024-03-29T18:38:16;9.27;;;4.60;;
21183;SDS011;18176;49.502;11.754;2024-03-29T18:42:33;14.82;;;7.88;;
21183;SDS011;18176;49.502;11.754;2024-03-29T18:46:52;11.45;;;6.30;;
21183;SDS011;18176;49.502;11.754;2024-03-29T18:51:09;9.10;;;6.50;;
21183;SDS011;18176;49.502;11.754;2024-03-29T18:55:26;9.98;;;5.13;;
21183;SDS011;18176;49.502;11.754;2024-03-29T18:59:43;9.52;;;5.20;;
21183;SDS011;18176;49.502;11.754;2024-03-29T19:04:03;14.57;;;8.60;;
21183;SDS011;18176;49.502;11.754;2024-03-29T19:08:20;10.27;;;6.68;;
21183;SDS011;18176;49.502;11.754;2024-03-29T19:12:37;14.95;;;7.88;;
21183;SDS011;18176;49.502;11.754;2024-03-29T19:16:54;14.95;;;10.15;;
21183;SDS011;18176;49.502;11.754;2024-03-29T19:21:14;16.77;;;11.10;;
21183;SDS011;18176;49.502;11.754;2024-03-29T19:25:31;12.85;;;8.52;;
21183;SDS011;18176;49.502;11.754;2024-03-29T19:29:48;11.97;;;8.70;;
21183;SDS011;18176;49.502;11.754;2024-03-29T19:34:06;14.90;;;9.17;;
21183;SDS011;18176;49.502;11.754;2024-03-29T19:38:26;15.30;;;10.40;;
21183;SDS011;18176;49.502;11.754;2024-03-29T19:42:43;15.53;;;10.23;;
21183;SDS011;18176;49.502;11.754;2024-03-29T19:47:00;13.70;;;9.93;;
21183;SDS011;18176;49.502;11.754;2024-03-29T19:51:17;12.70;;;8.83;;
21183;SDS011;18176;49.502;11.754;2024-03-29T19:55:36;14.60;;;9.43;;
21183;SDS011;18176;49.502;11.754;2024-03-29T19:59:53;13.20;;;8.60;;
21183;SDS011;18176;49.502;11.754;2024-03-29T20:04:10;12.83;;;9.33;;
21183;SDS011;18176;49.502;11.754;2024-03-29T20:08:27;18.00;;;9.97;;
21183;SDS011;18176;49.502;11.754;2024-03-29T20:12:46;14.17;;;10.20;;
21183;SDS011;18176;49.502;11.754;2024-03-29T20:17:03;14.90;;;10.10;;
21183;SDS011;18176;49.502;11.754;2024-03-29T20:21:21;15.37;;;10.60;;
21183;SDS011;18176;49.502;11.754;2024-03-29T20:25:38;16.53;;;11.60;;
21183;SDS011;18176;49.502;11.754;2024-03-29T20:29:59;16.43;;;10.17;;
21183;SDS011;18176;49.502;11.754;2024-03-29T20:34:16;16.93;;;11.67;;
21183;SDS011;18176;49.502;11.754;2024-03-29T20:38:33;15.13;;;10.70;;
21183;SDS011;18176;49.502;11.754;2024-03-29T20:42:50;13.63;;;9.13;;
21183;SDS011;18176;49.502;11.754;2024-03-29T20:47:10;12.50;;;8.83;;
21183;SDS011;18176;49.502;11.754;2024-03-29T20:51:26;14.17;;;9.60;;
21183;SDS011;18176;49.502;11.754;2024-03-29T20:55:43;14.47;;;9.43;;
21183;SDS011;18176;49.502;11.754;2024-03-29T21:00:01;25.23;;;14.03;;
21183;SDS011;18176;49.502;11.754;2024-03-29T21:04:23;19.60;;;11.90;;
21183;SDS011;18176;49.502;11.754;2024-03-29T21:08:55;23.00;;;13.20;;
21183;SDS011;18176;49.502;11.754;2024-03-29T21:13:12;23.80;;;13.40;;
21183;SDS011;18176;49.502;11.754;2024-03-29T21:17:29;16.20;;;10.17;;
21183;SDS011;18176;49.502;11.754;2024-03-29T21:21:49;19.33;;;10.13;;
21183;SDS011;18176;49.502;11.754;2024-03-29T21:26:05;17.10;;;10.23;;
21183;SDS011;18176;49.502;11.754;2024-03-29T21:30:22;18.83;;;9.37;;
21183;SDS011;18176;49.502;11.754;2024-03-29T21:34:40;16.50;;;10.30;;
21183;SDS011;18176;49.502;11.754;2024-03-29T21:38:59;18.50;;;9.63;;
21183;SDS011;18176;49.502;11.754;2024-03-29T21:43:16;16.73;;;9.53;;
21183;SDS011;18176;49.502;11.754;2024-03-29T21:47:33;21.43;;;10.50;;
21183;SDS011;18176;49.502;11.754;2024-03-29T21:51:52;19.47;;;10.73;;
21183;SDS011;18176;49.502;11.754;2024-03-29T21:56:11;16.30;;;10.30;;
21183;SDS011;18176;49.502;11.754;2024-03-29T22:00:28;18.20;;;9.37;;
21183;SDS011;18176;49.502;11.754;2024-03-29T22:04:45;16.53;;;9.03;;
21183;SDS011;18176;49.502;11.754;2024-03-29T22:09:02;13.93;;;8.57;;
21183;SDS011;18176;49.502;11.754;2024-03-29T22:13:22;10.40;;;6.93;;
21183;SDS011;18176;49.502;11.754;2024-03-29T22:17:38;11.23;;;7.27;;
21183;SDS011;18176;49.502;11.754;2024-03-29T22:21:55;15.13;;;8.13;;
21183;SDS011;18176;49.502;11.754;2024-03-29T22:26:12;14.10;;;7.77;;
21183;SDS011;18176;49.502;11.754;2024-03-29T22:30:32;12.53;;;7.50;;
21183;SDS011;18176;49.502;11.754;2024-03-29T22:34:48;11.23;;;6.57;;
21183;SDS011;18176;49.502;11.754;2024-03-29T22:39:05;12.13;;;6.67;;
21183;SDS011;18176;49.502;11.754;2024-03-29T22:43:23;12.90;;;7.30;;
21183;SDS011;18176;49.502;11.754;2024-03-29T22:47:42;14.40;;;8.00;;
21183;SDS011;18176;49.502;11.754;2024-03-29T22:51:59;13.43;;;7.87;;
21183;SDS011;18176;49.502;11.754;2024-03-29T22:56:16;13.87;;;7.87;;
21183;SDS011;18176;49.502;11.754;2024-03-29T23:00:33;13.30;;;8.40;;
21183;SDS011;18176;49.502;11.754;2024-03-29T23:04:53;16.23;;;9.30;;
21183;SDS011;18176;49.502;11.754;2024-03-29T23:09:10;15.93;;;8.97;;
21183;SDS011;18176;49.502;11.754;2024-03-29T23:13:27;14.20;;;8.20;;
21183;SDS011;18176;49.502;11.754;2024-03-29T23:17:44;15.27;;;8.53;;
21183;SDS011;18176;49.502;11.754;2024-03-29T23:22:03;15.27;;;9.13;;
21183;SDS011;18176;49.502;11.754;2024-03-29T23:26:20;16.97;;;9.60;;
21183;SDS011;18176;49.502;11.754;2024-03-29T23:30:37;14.40;;;8.53;;
21183;SDS011;18176;49.502;11.754;2024-03-29T23:34:54;15.83;;;8.63;;
21183;SDS011;18176;49.502;11.754;2024-03-29T23:39:14;12.90;;;8.13;;
21183;SDS011;18176;49.502;11.754;2024-03-29T23:43:30;14.20;;;8.60;;
21183;SDS011;18176;49.502;11.754;2024-03-29T23:47:47;11.97;;;8.17;;
21183;SDS011;18176;49.502;11.754;2024-03-29T23:52:04;13.23;;;8.73;;
21183;SDS011;18176;49.502;11.754;2024-03-29T23:56:24;19.30;;;11.73;;
